Aviation Digital Data Service (ADDS)

Output produced by METARs form (1348 UTC 13 December 2019)
found at http://www.aviationweather.gov/metar/data/
 
METAR text: UDYZ 131330Z 00000KT 3500 -RA BR OVC026 03/01 Q1016 R09/190065 NOSIG
Conditions at: UDYZ (ZVARTNOTS , AM) observed 1330 UTC 13 December 2019
Temperature: 3.0°C (37°F)
Dewpoint: 1.0°C (34°F) [RH = 87%]
Pressure (altimeter): 30.00 inches Hg (1016.0 mb)
Winds: calm
Visibility: 2.17 miles (3.49 km)
Ceiling: 2600 feet AGL
Clouds: overcast cloud deck at 2600 feet AGL
Weather: -RA BR  (light rain, mist)

METAR text: UDYZ 131300Z 24001KT 3500 -RA BR OVC026 04/01 Q1016 R09/190065 NOSIG
Conditions at: UDYZ (ZVARTNOTS , AM) observed 1300 UTC 13 December 2019
Temperature: 4.0°C (39°F)
Dewpoint: 1.0°C (34°F) [RH = 81%]
Pressure (altimeter): 30.00 inches Hg (1016.0 mb)
Winds: from the WSW (240 degrees) at 1 MPH (1 knots; 0.5 m/s)
Visibility: 2.17 miles (3.49 km)
Ceiling: 2600 feet AGL
Clouds: overcast cloud deck at 2600 feet AGL
Weather: -RA BR  (light rain, mist)

METAR text: UDYZ 131230Z 00000KT 3500 -RA BR OVC026 04/01 Q1016 R09/190065 NOSIG
Conditions at: UDYZ (ZVARTNOTS , AM) observed 1230 UTC 13 December 2019
Temperature: 4.0°C (39°F)
Dewpoint: 1.0°C (34°F) [RH = 81%]
Pressure (altimeter): 30.00 inches Hg (1016.0 mb)
Winds: calm
Visibility: 2.17 miles (3.49 km)
Ceiling: 2600 feet AGL
Clouds: overcast cloud deck at 2600 feet AGL
Weather: -RA BR  (light rain, mist)

METAR text: UDYZ 131200Z 00000KT 3500 -RA BR OVC026 04/01 Q1015 R09/190065 TEMPO 2000 -RA
Conditions at: UDYZ (ZVARTNOTS , AM) observed 1200 UTC 13 December 2019
Temperature: 4.0°C (39°F)
Dewpoint: 1.0°C (34°F) [RH = 81%]
Pressure (altimeter): 29.97 inches Hg (1015.0 mb)
Winds: calm
Visibility: 2.17 miles (3.49 km)
Ceiling: 2600 feet AGL
Clouds: overcast cloud deck at 2600 feet AGL
Weather: -RA BR  (light rain, mist)

METAR text: UDYZ 131130Z 00000KT 3500 -RA BR OVC033 04/01 Q1015 R09/010070 TEMPO 2000 -RA
Conditions at: UDYZ (ZVARTNOTS , AM) observed 1130 UTC 13 December 2019
Temperature: 4.0°C (39°F)
Dewpoint: 1.0°C (34°F) [RH = 81%]
Pressure (altimeter): 29.97 inches Hg (1015.0 mb)
Winds: calm
Visibility: 2.17 miles (3.49 km)
Ceiling: 3300 feet AGL
Clouds: overcast cloud deck at 3300 feet AGL
Weather: -RA BR  (light rain, mist)

METAR text: UDYZ 131100Z 00000KT 3500 BR BKN033 04/01 Q1015 R09/010070 NOSIG
Conditions at: UDYZ (ZVARTNOTS , AM) observed 1100 UTC 13 December 2019
Temperature: 4.0°C (39°F)
Dewpoint: 1.0°C (34°F) [RH = 81%]
Pressure (altimeter): 29.97 inches Hg (1015.0 mb)
Winds: calm
Visibility: 2.17 miles (3.49 km)
Ceiling: 3300 feet AGL
Clouds: broken clouds at 3300 feet AGL
Weather: BR  (mist)

METAR text: UDYZ 131030Z VRB02KT 3500 BR BKN033 04/00 Q1015 R09/010070 NOSIG
Conditions at: UDYZ (ZVARTNOTS , AM) observed 1030 UTC 13 December 2019
Temperature: 4.0°C (39°F)
Dewpoint: 0.0°C (32°F) [RH = 75%]
Pressure (altimeter): 29.97 inches Hg (1015.0 mb)
Winds: variable direction winds at 2 MPH (2 knots; 1.0 m/s)
Visibility: 2.17 miles (3.49 km)
Ceiling: 3300 feet AGL
Clouds: broken clouds at 3300 feet AGL
Weather: BR  (mist)

METAR text: UDYZ 131000Z 22003KT 3500 BR BKN033 04/01 Q1015 R09/010070 NOSIG
Conditions at: UDYZ (ZVARTNOTS , AM) observed 1000 UTC 13 December 2019
Temperature: 4.0°C (39°F)
Dewpoint: 1.0°C (34°F) [RH = 81%]
Pressure (altimeter): 29.97 inches Hg (1015.0 mb)
Winds: from the SW (220 degrees) at 3 MPH (3 knots; 1.5 m/s)
Visibility: 2.17 miles (3.49 km)
Ceiling: 3300 feet AGL
Clouds: broken clouds at 3300 feet AGL
Weather: BR  (mist)

METAR text: UDYZ 130930Z 20003KT 3500 BR BKN033 04/01 Q1015 R09/010070 NOSIG
Conditions at: UDYZ (ZVARTNOTS , AM) observed 0930 UTC 13 December 2019
Temperature: 4.0°C (39°F)
Dewpoint: 1.0°C (34°F) [RH = 81%]
Pressure (altimeter): 29.97 inches Hg (1015.0 mb)
Winds: from the SSW (200 degrees) at 3 MPH (3 knots; 1.5 m/s)
Visibility: 2.17 miles (3.49 km)
Ceiling: 3300 feet AGL
Clouds: broken clouds at 3300 feet AGL
Weather: BR  (mist)

METAR text: UDYZ 130900Z 18001KT 3500 BR BKN033 04/01 Q1015 R09/010070 NOSIG
Conditions at: UDYZ (ZVARTNOTS , AM) observed 0900 UTC 13 December 2019
Temperature: 4.0°C (39°F)
Dewpoint: 1.0°C (34°F) [RH = 81%]
Pressure (altimeter): 29.97 inches Hg (1015.0 mb)
Winds: from the S (180 degrees) at 1 MPH (1 knots; 0.5 m/s)
Visibility: 2.17 miles (3.49 km)
Ceiling: 3300 feet AGL
Clouds: broken clouds at 3300 feet AGL
Weather: BR  (mist)

METAR text: UDYZ 130830Z VRB01KT 3500 BR BKN036 04/01 Q1015 R09/010070 NOSIG
Conditions at: UDYZ (ZVARTNOTS , AM) observed 0830 UTC 13 December 2019
Temperature: 4.0°C (39°F)
Dewpoint: 1.0°C (34°F) [RH = 81%]
Pressure (altimeter): 29.97 inches Hg (1015.0 mb)
Winds: variable direction winds at 1 MPH (1 knots; 0.5 m/s)
Visibility: 2.17 miles (3.49 km)
Ceiling: 3600 feet AGL
Clouds: broken clouds at 3600 feet AGL
Weather: BR  (mist)

METAR text: UDYZ 130800Z 00000KT 3500 BR BKN040 04/01 Q1016 R09/010070 NOSIG
Conditions at: UDYZ (ZVARTNOTS , AM) observed 0800 UTC 13 December 2019
Temperature: 4.0°C (39°F)
Dewpoint: 1.0°C (34°F) [RH = 81%]
Pressure (altimeter): 30.00 inches Hg (1016.0 mb)
Winds: calm
Visibility: 2.17 miles (3.49 km)
Ceiling: 4000 feet AGL
Clouds: broken clouds at 4000 feet AGL
Weather: BR  (mist)

METAR text: UDYZ 130730Z 00000KT 3000 BR BKN033 04/01 Q1016 R09/010070 NOSIG
Conditions at: UDYZ (ZVARTNOTS , AM) observed 0730 UTC 13 December 2019
Temperature: 4.0°C (39°F)
Dewpoint: 1.0°C (34°F) [RH = 81%]
Pressure (altimeter): 30.00 inches Hg (1016.0 mb)
Winds: calm
Visibility: 1.86 miles (2.99 km)
Ceiling: 3300 feet AGL
Clouds: broken clouds at 3300 feet AGL
Weather: BR  (mist)

METAR text: UDYZ 130700Z 00000KT 3000 BR BKN033 03/01 Q1016 R09/010070 NOSIG
Conditions at: UDYZ (ZVARTNOTS , AM) observed 0700 UTC 13 December 2019
Temperature: 3.0°C (37°F)
Dewpoint: 1.0°C (34°F) [RH = 87%]
Pressure (altimeter): 30.00 inches Hg (1016.0 mb)
Winds: calm
Visibility: 1.86 miles (2.99 km)
Ceiling: 3300 feet AGL
Clouds: broken clouds at 3300 feet AGL
Weather: BR  (mist)

METAR text: UDYZ 130630Z 00000KT 2300 BR BKN026 03/02 Q1016 R09/010070 NOSIG
Conditions at: UDYZ (ZVARTNOTS , AM) observed 0630 UTC 13 December 2019
Temperature: 3.0°C (37°F)
Dewpoint: 2.0°C (36°F) [RH = 93%]
Pressure (altimeter): 30.00 inches Hg (1016.0 mb)
Winds: calm
Visibility: 1.43 miles (2.30 km)
Ceiling: 2600 feet AGL
Clouds: broken clouds at 2600 feet AGL
Weather: BR  (mist)

METAR text: UDYZ 130600Z 07002KT 2000 R09/2000N BR BKN026 02/01 Q1016 R09/010070 NOSIG
Conditions at: UDYZ (ZVARTNOTS , AM) observed 0600 UTC 13 December 2019
Temperature: 2.0°C (36°F)
Dewpoint: 1.0°C (34°F) [RH = 93%]
Pressure (altimeter): 30.00 inches Hg (1016.0 mb)
Winds: from the ENE (70 degrees) at 2 MPH (2 knots; 1.0 m/s)
Visibility: 1.24 miles (2.00 km)
Ceiling: 2600 feet AGL
Clouds: broken clouds at 2600 feet AGL
Weather: BR  (mist)

METAR text: UDYZ 130530Z 00000KT 2000 R09/2000U BR FEW009 SCT040 01/01 Q1016 R09/010070 NOSIG
Conditions at: UDYZ (ZVARTNOTS , AM) observed 0530 UTC 13 December 2019
Temperature: 1.0°C (34°F)
Dewpoint: 1.0°C (34°F) [RH = 100%]
Pressure (altimeter): 30.00 inches Hg (1016.0 mb)
Winds: calm
Visibility: 1.24 miles (2.00 km)
Ceiling: at least 12,000 feet AGL
Clouds: few clouds at 900 feet AGL
scattered clouds at 4000 feet AGL
Weather: BR  (mist)

METAR text: UDYZ 130500Z 00000KT 1500 1400E R09/1600D BR FEW006 SCT040 01/M00 Q1015 R09/010070 NOSIG
Conditions at: UDYZ (ZVARTNOTS , AM) observed 0500 UTC 13 December 2019
Temperature: 1.0°C (34°F)
Dewpoint: 0.0°C (32°F) [RH = 93%]
Pressure (altimeter): 29.97 inches Hg (1015.0 mb)
Winds: calm
Visibility: 0.93 miles (1.50 km)
Ceiling: at least 12,000 feet AGL
Clouds: few clouds at 600 feet AGL
scattered clouds at 4000 feet AGL
Weather: BR  (mist)

METAR text: UDYZ 130430Z 28001KT 0900 0800E R09/2000N FG SCT006 00/M00 Q1015 R09/010070 TEMPO 0200 FG VV001
Conditions at: UDYZ (ZVARTNOTS , AM) observed 0430 UTC 13 December 2019
Temperature: 0.0°C (32°F)
Dewpoint: 0.0°C (32°F) [RH = 100%]
Pressure (altimeter): 29.97 inches Hg (1015.0 mb)
Winds: from the W (280 degrees) at 1 MPH (1 knots; 0.5 m/s)
Visibility: 0.56 miles (0.90 km)
Ceiling: at least 12,000 feet AGL
Clouds: scattered clouds at 600 feet AGL
Weather: FG  (fog)

METAR text: UDYZ 130400Z 00000KT 2000 R09/P2000N BR SCT036 01/M00 Q1015 R09/010070 NOSIG
Conditions at: UDYZ (ZVARTNOTS , AM) observed 0400 UTC 13 December 2019
Temperature: 1.0°C (34°F)
Dewpoint: 0.0°C (32°F) [RH = 93%]
Pressure (altimeter): 29.97 inches Hg (1015.0 mb)
Winds: calm
Visibility: 1.24 miles (2.00 km)
Ceiling: at least 12,000 feet AGL
Clouds: scattered clouds at 3600 feet AGL
Weather: BR  (mist)

METAR text: UDYZ 130330Z 00000KT 2300 BR BKN036 01/M00 Q1015 R09/010070 NOSIG
Conditions at: UDYZ (ZVARTNOTS , AM) observed 0330 UTC 13 December 2019
Temperature: 1.0°C (34°F)
Dewpoint: 0.0°C (32°F) [RH = 93%]
Pressure (altimeter): 29.97 inches Hg (1015.0 mb)
Winds: calm
Visibility: 1.43 miles (2.30 km)
Ceiling: 3600 feet AGL
Clouds: broken clouds at 3600 feet AGL
Weather: BR  (mist)

METAR text: UDYZ 130300Z 00000KT 3500 BR BKN033 01/00 Q1015 R09/010070 NOSIG
Conditions at: UDYZ (ZVARTNOTS , AM) observed 0300 UTC 13 December 2019
Temperature: 1.0°C (34°F)
Dewpoint: 0.0°C (32°F) [RH = 93%]
Pressure (altimeter): 29.97 inches Hg (1015.0 mb)
Winds: calm
Visibility: 2.17 miles (3.49 km)
Ceiling: 3300 feet AGL
Clouds: broken clouds at 3300 feet AGL
Weather: BR  (mist)

METAR text: UDYZ 130230Z 00000KT 3500 BR BKN033 01/00 Q1015 R09/010070 NOSIG
Conditions at: UDYZ (ZVARTNOTS , AM) observed 0230 UTC 13 December 2019
Temperature: 1.0°C (34°F)
Dewpoint: 0.0°C (32°F) [RH = 93%]
Pressure (altimeter): 29.97 inches Hg (1015.0 mb)
Winds: calm
Visibility: 2.17 miles (3.49 km)
Ceiling: 3300 feet AGL
Clouds: broken clouds at 3300 feet AGL
Weather: BR  (mist)

METAR text: UDYZ 130200Z 00000KT 3500 BR BKN033 02/00 Q1015 R09/010070 NOSIG
Conditions at: UDYZ (ZVARTNOTS , AM) observed 0200 UTC 13 December 2019
Temperature: 2.0°C (36°F)
Dewpoint: 0.0°C (32°F) [RH = 87%]
Pressure (altimeter): 29.97 inches Hg (1015.0 mb)
Winds: calm
Visibility: 2.17 miles (3.49 km)
Ceiling: 3300 feet AGL
Clouds: broken clouds at 3300 feet AGL
Weather: BR  (mist)

METAR text: UDYZ 130130Z 04001KT 2300 BR FEW018 BKN033 02/00 Q1015 R09/010070 NOSIG
Conditions at: UDYZ (ZVARTNOTS , AM) observed 0130 UTC 13 December 2019
Temperature: 2.0°C (36°F)
Dewpoint: 0.0°C (32°F) [RH = 87%]
Pressure (altimeter): 29.97 inches Hg (1015.0 mb)
Winds: from the NE (40 degrees) at 1 MPH (1 knots; 0.5 m/s)
Visibility: 1.43 miles (2.30 km)
Ceiling: 3300 feet AGL
Clouds: few clouds at 1800 feet AGL
broken clouds at 3300 feet AGL
Weather: BR  (mist)

METAR text: UDYZ 130100Z 06001KT 2300 BR FEW018 BKN033 02/00 Q1015 R09/010070 NOSIG
Conditions at: UDYZ (ZVARTNOTS , AM) observed 0100 UTC 13 December 2019
Temperature: 2.0°C (36°F)
Dewpoint: 0.0°C (32°F) [RH = 87%]
Pressure (altimeter): 29.97 inches Hg (1015.0 mb)
Winds: from the ENE (60 degrees) at 1 MPH (1 knots; 0.5 m/s)
Visibility: 1.43 miles (2.30 km)
Ceiling: 3300 feet AGL
Clouds: few clouds at 1800 feet AGL
broken clouds at 3300 feet AGL
Weather: BR  (mist)

METAR text: UDYZ 130030Z 00000KT 2300 BR FEW017 BKN033 02/00 Q1016 R09/010070 NOSIG
Conditions at: UDYZ (ZVARTNOTS , AM) observed 0030 UTC 13 December 2019
Temperature: 2.0°C (36°F)
Dewpoint: 0.0°C (32°F) [RH = 87%]
Pressure (altimeter): 30.00 inches Hg (1016.0 mb)
Winds: calm
Visibility: 1.43 miles (2.30 km)
Ceiling: 3300 feet AGL
Clouds: few clouds at 1700 feet AGL
broken clouds at 3300 feet AGL
Weather: BR  (mist)

METAR text: UDYZ 130000Z 25001KT 2300 BR BKN033 02/00 Q1016 R09/010070 NOSIG
Conditions at: UDYZ (ZVARTNOTS , AM) observed 0000 UTC 13 December 2019
Temperature: 2.0°C (36°F)
Dewpoint: 0.0°C (32°F) [RH = 87%]
Pressure (altimeter): 30.00 inches Hg (1016.0 mb)
Winds: from the WSW (250 degrees) at 1 MPH (1 knots; 0.5 m/s)
Visibility: 1.43 miles (2.30 km)
Ceiling: 3300 feet AGL
Clouds: broken clouds at 3300 feet AGL
Weather: BR  (mist)

METAR text: UDYZ 122330Z 24002KT 2300 BR BKN033 02/00 Q1016 R09/010070 NOSIG
Conditions at: UDYZ (ZVARTNOTS , AM) observed 2330 UTC 12 December 2019
Temperature: 2.0°C (36°F)
Dewpoint: 0.0°C (32°F) [RH = 87%]
Pressure (altimeter): 30.00 inches Hg (1016.0 mb)
Winds: from the WSW (240 degrees) at 2 MPH (2 knots; 1.0 m/s)
Visibility: 1.43 miles (2.30 km)
Ceiling: 3300 feet AGL
Clouds: broken clouds at 3300 feet AGL
Weather: BR  (mist)

METAR text: UDYZ 122300Z 26001KT 2300 BR BKN033 02/00 Q1016 R09/010070 NOSIG
Conditions at: UDYZ (ZVARTNOTS , AM) observed 2300 UTC 12 December 2019
Temperature: 2.0°C (36°F)
Dewpoint: 0.0°C (32°F) [RH = 87%]
Pressure (altimeter): 30.00 inches Hg (1016.0 mb)
Winds: from the W (260 degrees) at 1 MPH (1 knots; 0.5 m/s)
Visibility: 1.43 miles (2.30 km)
Ceiling: 3300 feet AGL
Clouds: broken clouds at 3300 feet AGL
Weather: BR  (mist)

METAR text: UDYZ 122230Z 26001KT 2300 BR BKN033 02/01 Q1016 R09/010070 NOSIG
Conditions at: UDYZ (ZVARTNOTS , AM) observed 2230 UTC 12 December 2019
Temperature: 2.0°C (36°F)
Dewpoint: 1.0°C (34°F) [RH = 93%]
Pressure (altimeter): 30.00 inches Hg (1016.0 mb)
Winds: from the W (260 degrees) at 1 MPH (1 knots; 0.5 m/s)
Visibility: 1.43 miles (2.30 km)
Ceiling: 3300 feet AGL
Clouds: broken clouds at 3300 feet AGL
Weather: BR  (mist)

METAR text: UDYZ 122200Z 00000KT 3000 BR BKN033 02/00 Q1016 R09/010070 NOSIG
Conditions at: UDYZ (ZVARTNOTS , AM) observed 2200 UTC 12 December 2019
Temperature: 2.0°C (36°F)
Dewpoint: 0.0°C (32°F) [RH = 87%]
Pressure (altimeter): 30.00 inches Hg (1016.0 mb)
Winds: calm
Visibility: 1.86 miles (2.99 km)
Ceiling: 3300 feet AGL
Clouds: broken clouds at 3300 feet AGL
Weather: BR  (mist)

METAR text: UDYZ 122130Z 24002KT 3500 BR BKN033 02/00 Q1016 R09/010070 NOSIG
Conditions at: UDYZ (ZVARTNOTS , AM) observed 2130 UTC 12 December 2019
Temperature: 2.0°C (36°F)
Dewpoint: 0.0°C (32°F) [RH = 87%]
Pressure (altimeter): 30.00 inches Hg (1016.0 mb)
Winds: from the WSW (240 degrees) at 2 MPH (2 knots; 1.0 m/s)
Visibility: 2.17 miles (3.49 km)
Ceiling: 3300 feet AGL
Clouds: broken clouds at 3300 feet AGL
Weather: BR  (mist)

METAR text: UDYZ 122100Z 27001KT 3500 BR BKN030 02/00 Q1017 R09/010070 NOSIG
Conditions at: UDYZ (ZVARTNOTS , AM) observed 2100 UTC 12 December 2019
Temperature: 2.0°C (36°F)
Dewpoint: 0.0°C (32°F) [RH = 87%]
Pressure (altimeter): 30.03 inches Hg (1017.0 mb)
Winds: from the W (270 degrees) at 1 MPH (1 knots; 0.5 m/s)
Visibility: 2.17 miles (3.49 km)
Ceiling: 3000 feet AGL
Clouds: broken clouds at 3000 feet AGL
Weather: BR  (mist)

METAR text: UDYZ 122030Z 28001KT 3500 BR BKN030 03/00 Q1017 R09/010070 NOSIG
Conditions at: UDYZ (ZVARTNOTS , AM) observed 2030 UTC 12 December 2019
Temperature: 3.0°C (37°F)
Dewpoint: 0.0°C (32°F) [RH = 81%]
Pressure (altimeter): 30.03 inches Hg (1017.0 mb)
Winds: from the W (280 degrees) at 1 MPH (1 knots; 0.5 m/s)
Visibility: 2.17 miles (3.49 km)
Ceiling: 3000 feet AGL
Clouds: broken clouds at 3000 feet AGL
Weather: BR  (mist)

METAR text: UDYZ 122000Z 26002KT 3500 BR BKN028 03/00 Q1017 R09/010070 NOSIG
Conditions at: UDYZ (ZVARTNOTS , AM) observed 2000 UTC 12 December 2019
Temperature: 3.0°C (37°F)
Dewpoint: 0.0°C (32°F) [RH = 81%]
Pressure (altimeter): 30.03 inches Hg (1017.0 mb)
Winds: from the W (260 degrees) at 2 MPH (2 knots; 1.0 m/s)
Visibility: 2.17 miles (3.49 km)
Ceiling: 2800 feet AGL
Clouds: broken clouds at 2800 feet AGL
Weather: BR  (mist)

METAR text: UDYZ 121930Z 25003KT 3500 BR BKN028 03/00 Q1017 R09/010070 NOSIG
Conditions at: UDYZ (ZVARTNOTS , AM) observed 1930 UTC 12 December 2019
Temperature: 3.0°C (37°F)
Dewpoint: 0.0°C (32°F) [RH = 81%]
Pressure (altimeter): 30.03 inches Hg (1017.0 mb)
Winds: from the WSW (250 degrees) at 3 MPH (3 knots; 1.5 m/s)
Visibility: 2.17 miles (3.49 km)
Ceiling: 2800 feet AGL
Clouds: broken clouds at 2800 feet AGL
Weather: BR  (mist)

METAR text: UDYZ 121900Z 30001KT 3500 BR BKN028 03/00 Q1017 R09/010070 NOSIG
Conditions at: UDYZ (ZVARTNOTS , AM) observed 1900 UTC 12 December 2019
Temperature: 3.0°C (37°F)
Dewpoint: 0.0°C (32°F) [RH = 81%]
Pressure (altimeter): 30.03 inches Hg (1017.0 mb)
Winds: from the WNW (300 degrees) at 1 MPH (1 knots; 0.5 m/s)
Visibility: 2.17 miles (3.49 km)
Ceiling: 2800 feet AGL
Clouds: broken clouds at 2800 feet AGL
Weather: BR  (mist)

METAR text: UDYZ 121830Z 36002KT 3500 BR BKN029 03/00 Q1017 R09/010070 NOSIG
Conditions at: UDYZ (ZVARTNOTS , AM) observed 1830 UTC 12 December 2019
Temperature: 3.0°C (37°F)
Dewpoint: 0.0°C (32°F) [RH = 81%]
Pressure (altimeter): 30.03 inches Hg (1017.0 mb)
Winds: from the N (360 degrees) at 2 MPH (2 knots; 1.0 m/s)
Visibility: 2.17 miles (3.49 km)
Ceiling: 2900 feet AGL
Clouds: broken clouds at 2900 feet AGL
Weather: BR  (mist)

METAR text: UDYZ 121800Z 36001KT 3500 BR BKN029 03/00 Q1017 R09/010070 NOSIG
Conditions at: UDYZ (ZVARTNOTS , AM) observed 1800 UTC 12 December 2019
Temperature: 3.0°C (37°F)
Dewpoint: 0.0°C (32°F) [RH = 81%]
Pressure (altimeter): 30.03 inches Hg (1017.0 mb)
Winds: from the N (360 degrees) at 1 MPH (1 knots; 0.5 m/s)
Visibility: 2.17 miles (3.49 km)
Ceiling: 2900 feet AGL
Clouds: broken clouds at 2900 feet AGL
Weather: BR  (mist)

METAR text: UDYZ 121730Z 35001KT 3500 BR BKN029 03/00 Q1018 R09/010070 NOSIG
Conditions at: UDYZ (ZVARTNOTS , AM) observed 1730 UTC 12 December 2019
Temperature: 3.0°C (37°F)
Dewpoint: 0.0°C (32°F) [RH = 81%]
Pressure (altimeter): 30.06 inches Hg (1018.0 mb)
Winds: from the N (350 degrees) at 1 MPH (1 knots; 0.5 m/s)
Visibility: 2.17 miles (3.49 km)
Ceiling: 2900 feet AGL
Clouds: broken clouds at 2900 feet AGL
Weather: BR  (mist)

METAR text: UDYZ 121700Z 00000KT 6000 BKN029 03/00 Q1018 R09/010070 NOSIG
Conditions at: UDYZ (ZVARTNOTS , AM) observed 1700 UTC 12 December 2019
Temperature: 3.0°C (37°F)
Dewpoint: 0.0°C (32°F) [RH = 81%]
Pressure (altimeter): 30.06 inches Hg (1018.0 mb)
Winds: calm
Visibility: 4 miles ( 6 km)
Ceiling: 2900 feet AGL
Clouds: broken clouds at 2900 feet AGL
Weather: no significant weather observed at this time

METAR text: UDYZ 121630Z 31002KT 6000 BKN029 03/00 Q1018 R09/010070 NOSIG
Conditions at: UDYZ (ZVARTNOTS , AM) observed 1630 UTC 12 December 2019
Temperature: 3.0°C (37°F)
Dewpoint: 0.0°C (32°F) [RH = 81%]
Pressure (altimeter): 30.06 inches Hg (1018.0 mb)
Winds: from the NW (310 degrees) at 2 MPH (2 knots; 1.0 m/s)
Visibility: 4 miles ( 6 km)
Ceiling: 2900 feet AGL
Clouds: broken clouds at 2900 feet AGL
Weather: no significant weather observed at this time

METAR text: UDYZ 121600Z VRB01KT 6000 BKN030 03/00 Q1018 R09/010070 NOSIG
Conditions at: UDYZ (ZVARTNOTS , AM) observed 1600 UTC 12 December 2019
Temperature: 3.0°C (37°F)
Dewpoint: 0.0°C (32°F) [RH = 81%]
Pressure (altimeter): 30.06 inches Hg (1018.0 mb)
Winds: variable direction winds at 1 MPH (1 knots; 0.5 m/s)
Visibility: 4 miles ( 6 km)
Ceiling: 3000 feet AGL
Clouds: broken clouds at 3000 feet AGL
Weather: no significant weather observed at this time

METAR text: UDYZ 121530Z 23003KT 6000 BKN027 03/00 Q1018 R09/010070 NOSIG
Conditions at: UDYZ (ZVARTNOTS , AM) observed 1530 UTC 12 December 2019
Temperature: 3.0°C (37°F)
Dewpoint: 0.0°C (32°F) [RH = 81%]
Pressure (altimeter): 30.06 inches Hg (1018.0 mb)
Winds: from the SW (230 degrees) at 3 MPH (3 knots; 1.5 m/s)
Visibility: 4 miles ( 6 km)
Ceiling: 2700 feet AGL
Clouds: broken clouds at 2700 feet AGL
Weather: no significant weather observed at this time

METAR text: UDYZ 121500Z 24001KT 6000 BKN027 03/00 Q1018 R09/010070 NOSIG
Conditions at: UDYZ (ZVARTNOTS , AM) observed 1500 UTC 12 December 2019
Temperature: 3.0°C (37°F)
Dewpoint: 0.0°C (32°F) [RH = 81%]
Pressure (altimeter): 30.06 inches Hg (1018.0 mb)
Winds: from the WSW (240 degrees) at 1 MPH (1 knots; 0.5 m/s)
Visibility: 4 miles ( 6 km)
Ceiling: 2700 feet AGL
Clouds: broken clouds at 2700 feet AGL
Weather: no significant weather observed at this time

METAR text: UDYZ 121430Z 00000KT 6000 BKN027 03/M00 Q1018 R09/010070 NOSIG
Conditions at: UDYZ (ZVARTNOTS , AM) observed 1430 UTC 12 December 2019
Temperature: 3.0°C (37°F)
Dewpoint: 0.0°C (32°F) [RH = 81%]
Pressure (altimeter): 30.06 inches Hg (1018.0 mb)
Winds: calm
Visibility: 4 miles ( 6 km)
Ceiling: 2700 feet AGL
Clouds: broken clouds at 2700 feet AGL
Weather: no significant weather observed at this time

METAR text: UDYZ 121400Z 00000KT 6000 BKN026 03/M00 Q1018 R09/010070 NOSIG
Conditions at: UDYZ (ZVARTNOTS , AM) observed 1400 UTC 12 December 2019
Temperature: 3.0°C (37°F)
Dewpoint: 0.0°C (32°F) [RH = 81%]
Pressure (altimeter): 30.06 inches Hg (1018.0 mb)
Winds: calm
Visibility: 4 miles ( 6 km)
Ceiling: 2600 feet AGL
Clouds: broken clouds at 2600 feet AGL
Weather: no significant weather observed at this time

METAR text: UDYZ 121330Z 33001KT 6000 BKN026 04/M00 Q1019 R09/010070 NOSIG
Conditions at: UDYZ (ZVARTNOTS , AM) observed 1330 UTC 12 December 2019
Temperature: 4.0°C (39°F)
Dewpoint: 0.0°C (32°F) [RH = 75%]
Pressure (altimeter): 30.09 inches Hg (1019.0 mb)
Winds: from the NNW (330 degrees) at 1 MPH (1 knots; 0.5 m/s)
Visibility: 4 miles ( 6 km)
Ceiling: 2600 feet AGL
Clouds: broken clouds at 2600 feet AGL
Weather: no significant weather observed at this time

METAR text: UDYZ 121300Z 00000KT 6000 BKN026 04/M00 Q1019 R09/010070 NOSIG
Conditions at: UDYZ (ZVARTNOTS , AM) observed 1300 UTC 12 December 2019
Temperature: 4.0°C (39°F)
Dewpoint: 0.0°C (32°F) [RH = 75%]
Pressure (altimeter): 30.09 inches Hg (1019.0 mb)
Winds: calm
Visibility: 4 miles ( 6 km)
Ceiling: 2600 feet AGL
Clouds: broken clouds at 2600 feet AGL
Weather: no significant weather observed at this time

METAR text: UDYZ 121230Z 00000KT 6000 BKN028 04/M00 Q1019 R09/010070 NOSIG
Conditions at: UDYZ (ZVARTNOTS , AM) observed 1230 UTC 12 December 2019
Temperature: 4.0°C (39°F)
Dewpoint: 0.0°C (32°F) [RH = 75%]
Pressure (altimeter): 30.09 inches Hg (1019.0 mb)
Winds: calm
Visibility: 4 miles ( 6 km)
Ceiling: 2800 feet AGL
Clouds: broken clouds at 2800 feet AGL
Weather: no significant weather observed at this time

METAR text: UDYZ 121200Z 00000KT 3500 BR BKN030 04/M00 Q1019 R09/010070 NOSIG
Conditions at: UDYZ (ZVARTNOTS , AM) observed 1200 UTC 12 December 2019
Temperature: 4.0°C (39°F)
Dewpoint: 0.0°C (32°F) [RH = 75%]
Pressure (altimeter): 30.09 inches Hg (1019.0 mb)
Winds: calm
Visibility: 2.17 miles (3.49 km)
Ceiling: 3000 feet AGL
Clouds: broken clouds at 3000 feet AGL
Weather: BR  (mist)

METAR text: UDYZ 121130Z 00000KT 3500 BR BKN028 04/M00 Q1019 R09/010070 NOSIG
Conditions at: UDYZ (ZVARTNOTS , AM) observed 1130 UTC 12 December 2019
Temperature: 4.0°C (39°F)
Dewpoint: 0.0°C (32°F) [RH = 75%]
Pressure (altimeter): 30.09 inches Hg (1019.0 mb)
Winds: calm
Visibility: 2.17 miles (3.49 km)
Ceiling: 2800 feet AGL
Clouds: broken clouds at 2800 feet AGL
Weather: BR  (mist)

METAR text: UDYZ 121100Z 22001KT 3500 BR BKN028 04/M01 Q1019 R09/010070 NOSIG
Conditions at: UDYZ (ZVARTNOTS , AM) observed 1100 UTC 12 December 2019
Temperature: 4.0°C (39°F)
Dewpoint: -1.0°C (30°F) [RH = 70%]
Pressure (altimeter): 30.09 inches Hg (1019.0 mb)
Winds: from the SW (220 degrees) at 1 MPH (1 knots; 0.5 m/s)
Visibility: 2.17 miles (3.49 km)
Ceiling: 2800 feet AGL
Clouds: broken clouds at 2800 feet AGL
Weather: BR  (mist)

METAR text: UDYZ 121030Z 00000KT 3500 BR BKN028 04/M00 Q1020 R09/010070 NOSIG
Conditions at: UDYZ (ZVARTNOTS , AM) observed 1030 UTC 12 December 2019
Temperature: 4.0°C (39°F)
Dewpoint: 0.0°C (32°F) [RH = 75%]
Pressure (altimeter): 30.12 inches Hg (1020.0 mb)
Winds: calm
Visibility: 2.17 miles (3.49 km)
Ceiling: 2800 feet AGL
Clouds: broken clouds at 2800 feet AGL
Weather: BR  (mist)

METAR text: UDYZ 121000Z 00000KT 3500 BR BKN023 04/M00 Q1020 R09/010070 NOSIG
Conditions at: UDYZ (ZVARTNOTS , AM) observed 1000 UTC 12 December 2019
Temperature: 4.0°C (39°F)
Dewpoint: 0.0°C (32°F) [RH = 75%]
Pressure (altimeter): 30.12 inches Hg (1020.0 mb)
Winds: calm
Visibility: 2.17 miles (3.49 km)
Ceiling: 2300 feet AGL
Clouds: broken clouds at 2300 feet AGL
Weather: BR  (mist)

METAR text: UDYZ 120930Z 00000KT 3500 BR BKN023 03/M00 Q1020 R09/010070 NOSIG
Conditions at: UDYZ (ZVARTNOTS , AM) observed 0930 UTC 12 December 2019
Temperature: 3.0°C (37°F)
Dewpoint: 0.0°C (32°F) [RH = 81%]
Pressure (altimeter): 30.12 inches Hg (1020.0 mb)
Winds: calm
Visibility: 2.17 miles (3.49 km)
Ceiling: 2300 feet AGL
Clouds: broken clouds at 2300 feet AGL
Weather: BR  (mist)

METAR text: UDYZ 120900Z 00000KT 3500 BR BKN023 03/M00 Q1021 R09/010070 NOSIG
Conditions at: UDYZ (ZVARTNOTS , AM) observed 0900 UTC 12 December 2019
Temperature: 3.0°C (37°F)
Dewpoint: 0.0°C (32°F) [RH = 81%]
Pressure (altimeter): 30.15 inches Hg (1021.0 mb)
Winds: calm
Visibility: 2.17 miles (3.49 km)
Ceiling: 2300 feet AGL
Clouds: broken clouds at 2300 feet AGL
Weather: BR  (mist)

METAR text: UDYZ 120830Z 00000KT 3500 BR BKN023 03/M00 Q1021 R09/010070 NOSIG
Conditions at: UDYZ (ZVARTNOTS , AM) observed 0830 UTC 12 December 2019
Temperature: 3.0°C (37°F)
Dewpoint: 0.0°C (32°F) [RH = 81%]
Pressure (altimeter): 30.15 inches Hg (1021.0 mb)
Winds: calm
Visibility: 2.17 miles (3.49 km)
Ceiling: 2300 feet AGL
Clouds: broken clouds at 2300 feet AGL
Weather: BR  (mist)

METAR text: UDYZ 120800Z 00000KT 3500 BR BKN019 03/00 Q1022 R09/010070 NOSIG
Conditions at: UDYZ (ZVARTNOTS , AM) observed 0800 UTC 12 December 2019
Temperature: 3.0°C (37°F)
Dewpoint: 0.0°C (32°F) [RH = 81%]
Pressure (altimeter): 30.18 inches Hg (1022.0 mb)
Winds: calm
Visibility: 2.17 miles (3.49 km)
Ceiling: 1900 feet AGL
Clouds: broken clouds at 1900 feet AGL
Weather: BR  (mist)

METAR text: UDYZ 120730Z 00000KT 2300 BR BKN017 03/01 Q1022 R09/010070 NOSIG
Conditions at: UDYZ (ZVARTNOTS , AM) observed 0730 UTC 12 December 2019
Temperature: 3.0°C (37°F)
Dewpoint: 1.0°C (34°F) [RH = 87%]
Pressure (altimeter): 30.18 inches Hg (1022.0 mb)
Winds: calm
Visibility: 1.43 miles (2.30 km)
Ceiling: 1700 feet AGL
Clouds: broken clouds at 1700 feet AGL
Weather: BR  (mist)

METAR text: UDYZ 120700Z 23001KT 2300 BR BKN017 03/01 Q1022 R09/010070 NOSIG
Conditions at: UDYZ (ZVARTNOTS , AM) observed 0700 UTC 12 December 2019
Temperature: 3.0°C (37°F)
Dewpoint: 1.0°C (34°F) [RH = 87%]
Pressure (altimeter): 30.18 inches Hg (1022.0 mb)
Winds: from the SW (230 degrees) at 1 MPH (1 knots; 0.5 m/s)
Visibility: 1.43 miles (2.30 km)
Ceiling: 1700 feet AGL
Clouds: broken clouds at 1700 feet AGL
Weather: BR  (mist)

METAR text: UDYZ 120630Z 22002KT 2300 BR BKN017 02/01 Q1021 R09/010070 NOSIG
Conditions at: UDYZ (ZVARTNOTS , AM) observed 0630 UTC 12 December 2019
Temperature: 2.0°C (36°F)
Dewpoint: 1.0°C (34°F) [RH = 93%]
Pressure (altimeter): 30.15 inches Hg (1021.0 mb)
Winds: from the SW (220 degrees) at 2 MPH (2 knots; 1.0 m/s)
Visibility: 1.43 miles (2.30 km)
Ceiling: 1700 feet AGL
Clouds: broken clouds at 1700 feet AGL
Weather: BR  (mist)

METAR text: UDYZ 120600Z 00000KT 2300 BR BKN017 02/01 Q1021 R09/010070 NOSIG
Conditions at: UDYZ (ZVARTNOTS , AM) observed 0600 UTC 12 December 2019
Temperature: 2.0°C (36°F)
Dewpoint: 1.0°C (34°F) [RH = 93%]
Pressure (altimeter): 30.15 inches Hg (1021.0 mb)
Winds: calm
Visibility: 1.43 miles (2.30 km)
Ceiling: 1700 feet AGL
Clouds: broken clouds at 1700 feet AGL
Weather: BR  (mist)

METAR text: UDYZ 120530Z 00000KT 2000 R09/2000N BR BKN016 02/01 Q1021 R09/010070 NOSIG
Conditions at: UDYZ (ZVARTNOTS , AM) observed 0530 UTC 12 December 2019
Temperature: 2.0°C (36°F)
Dewpoint: 1.0°C (34°F) [RH = 93%]
Pressure (altimeter): 30.15 inches Hg (1021.0 mb)
Winds: calm
Visibility: 1.24 miles (2.00 km)
Ceiling: 1600 feet AGL
Clouds: broken clouds at 1600 feet AGL
Weather: BR  (mist)

METAR text: UDYZ 120500Z 00000KT 2000 R09/2000N BR BKN015 02/01 Q1021 R09/010070 NOSIG
Conditions at: UDYZ (ZVARTNOTS , AM) observed 0500 UTC 12 December 2019
Temperature: 2.0°C (36°F)
Dewpoint: 1.0°C (34°F) [RH = 93%]
Pressure (altimeter): 30.15 inches Hg (1021.0 mb)
Winds: calm
Visibility: 1.24 miles (2.00 km)
Ceiling: 1500 feet AGL
Clouds: broken clouds at 1500 feet AGL
Weather: BR  (mist)

METAR text: UDYZ 120430Z 00000KT 2000 R09/2000N BR BKN015 02/01 Q1021 R09/010070 NOSIG
Conditions at: UDYZ (ZVARTNOTS , AM) observed 0430 UTC 12 December 2019
Temperature: 2.0°C (36°F)
Dewpoint: 1.0°C (34°F) [RH = 93%]
Pressure (altimeter): 30.15 inches Hg (1021.0 mb)
Winds: calm
Visibility: 1.24 miles (2.00 km)
Ceiling: 1500 feet AGL
Clouds: broken clouds at 1500 feet AGL
Weather: BR  (mist)

METAR text: UDYZ 120400Z 00000KT 1900 R09/2000D BR BKN015 02/01 Q1021 R09/010070 NOSIG
Conditions at: UDYZ (ZVARTNOTS , AM) observed 0400 UTC 12 December 2019
Temperature: 2.0°C (36°F)
Dewpoint: 1.0°C (34°F) [RH = 93%]
Pressure (altimeter): 30.15 inches Hg (1021.0 mb)
Winds: calm
Visibility: 1.18 miles (1.90 km)
Ceiling: 1500 feet AGL
Clouds: broken clouds at 1500 feet AGL
Weather: BR  (mist)

METAR text: UDYZ 120330Z 00000KT 1700 R09/P2000N BR BKN016 01/00 Q1021 R09/010070 NOSIG
Conditions at: UDYZ (ZVARTNOTS , AM) observed 0330 UTC 12 December 2019
Temperature: 1.0°C (34°F)
Dewpoint: 0.0°C (32°F) [RH = 93%]
Pressure (altimeter): 30.15 inches Hg (1021.0 mb)
Winds: calm
Visibility: 1.06 miles (1.71 km)
Ceiling: 1600 feet AGL
Clouds: broken clouds at 1600 feet AGL
Weather: BR  (mist)

METAR text: UDYZ 120300Z 00000KT 2000 R09/P2000N BR BKN016 01/00 Q1021 R09/010070 NOSIG
Conditions at: UDYZ (ZVARTNOTS , AM) observed 0300 UTC 12 December 2019
Temperature: 1.0°C (34°F)
Dewpoint: 0.0°C (32°F) [RH = 93%]
Pressure (altimeter): 30.15 inches Hg (1021.0 mb)
Winds: calm
Visibility: 1.24 miles (2.00 km)
Ceiling: 1600 feet AGL
Clouds: broken clouds at 1600 feet AGL
Weather: BR  (mist)

METAR text: UDYZ 120230Z 00000KT 1600 R09/P2000D BR BKN016 01/00 Q1021 R09/010070 NOSIG
Conditions at: UDYZ (ZVARTNOTS , AM) observed 0230 UTC 12 December 2019
Temperature: 1.0°C (34°F)
Dewpoint: 0.0°C (32°F) [RH = 93%]
Pressure (altimeter): 30.15 inches Hg (1021.0 mb)
Winds: calm
Visibility: 0.99 miles (1.59 km)
Ceiling: 1600 feet AGL
Clouds: broken clouds at 1600 feet AGL
Weather: BR  (mist)

METAR text: UDYZ 120200Z 00000KT 1500 R09/P2000U BR BKN016 01/00 Q1021 R09/010070 NOSIG
Conditions at: UDYZ (ZVARTNOTS , AM) observed 0200 UTC 12 December 2019
Temperature: 1.0°C (34°F)
Dewpoint: 0.0°C (32°F) [RH = 93%]
Pressure (altimeter): 30.15 inches Hg (1021.0 mb)
Winds: calm
Visibility: 0.93 miles (1.50 km)
Ceiling: 1600 feet AGL
Clouds: broken clouds at 1600 feet AGL
Weather: BR  (mist)

Forecast for: UDYZ (ZVARTNOTS , AM)
Text: TAF UDYZ 131100Z 1312/1412 22006KT 3500 BR BKN030
Forecast period: 1200 UTC 13 December 2019 to 1200 UTC 14 December 2019
Forecast type: FROM: standard forecast or significant change
Winds: from the SW (220 degrees) at 7 MPH (6 knots; 3.1 m/s)
Visibility: 2.17 miles (3.49 km)
Ceiling: 3000 feet AGL
Clouds: broken clouds at 3000 feet AGL
Weather: BR  (mist)
Text: TEMPO 1312/1321 1000 RA BR OVC007
Forecast period: 1200 to 2100 UTC 13 December 2019
Forecast type: TEMPORARY: The following changes expected for less than half the time period
Visibility: 0.62 miles (1.00 km)
Ceiling: 700 feet AGL
Clouds: overcast cloud deck at 700 feet AGL
Weather: RA BR  (moderate rain, mist)